sensor_id;sensor_type;location;lat;lon;timestamp;P1;durP1;ratioP1;P2;durP2;ratioP2
68484;SDS011;55472;50.060;21.960;2023-04-03T00:01:02;4.50;;;1.70;;
68484;SDS011;55472;50.060;21.960;2023-04-03T00:03:29;4.30;;;1.65;;
68484;SDS011;55472;50.060;21.960;2023-04-03T00:05:56;5.18;;;1.98;;
68484;SDS011;55472;50.060;21.960;2023-04-03T00:08:22;4.72;;;1.88;;
68484;SDS011;55472;50.060;21.960;2023-04-03T00:10:49;5.50;;;1.95;;
68484;SDS011;55472;50.060;21.960;2023-04-03T00:13:15;5.10;;;2.20;;
68484;SDS011;55472;50.060;21.960;2023-04-03T00:15:42;5.40;;;2.20;;
68484;SDS011;55472;50.060;21.960;2023-04-03T00:18:09;5.30;;;1.77;;
68484;SDS011;55472;50.060;21.960;2023-04-03T00:20:35;4.20;;;1.85;;
68484;SDS011;55472;50.060;21.960;2023-04-03T00:23:01;6.03;;;2.40;;
68484;SDS011;55472;50.060;21.960;2023-04-03T00:25:28;5.13;;;2.20;;
68484;SDS011;55472;50.060;21.960;2023-04-03T00:27:54;5.38;;;2.08;;
68484;SDS011;55472;50.060;21.960;2023-04-03T00:30:21;7.05;;;2.20;;
68484;SDS011;55472;50.060;21.960;2023-04-03T00:32:48;5.45;;;2.35;;
68484;SDS011;55472;50.060;21.960;2023-04-03T00:35:15;4.55;;;2.17;;
68484;SDS011;55472;50.060;21.960;2023-04-03T00:37:42;5.07;;;2.20;;
68484;SDS011;55472;50.060;21.960;2023-04-03T00:40:10;5.43;;;2.20;;
68484;SDS011;55472;50.060;21.960;2023-04-03T00:42:39;5.43;;;2.15;;
68484;SDS011;55472;50.060;21.960;2023-04-03T00:47:36;4.68;;;2.03;;
68484;SDS011;55472;50.060;21.960;2023-04-03T00:50:05;4.77;;;2.20;;
68484;SDS011;55472;50.060;21.960;2023-04-03T00:52:32;5.10;;;2.05;;
68484;SDS011;55472;50.060;21.960;2023-04-03T00:55:00;4.65;;;2.25;;
68484;SDS011;55472;50.060;21.960;2023-04-03T00:57:31;5.20;;;2.35;;
68484;SDS011;55472;50.060;21.960;2023-04-03T00:59:59;4.82;;;1.98;;
68484;SDS011;55472;50.060;21.960;2023-04-03T01:02:31;5.33;;;2.40;;
68484;SDS011;55472;50.060;21.960;2023-04-03T01:04:57;5.18;;;2.08;;
68484;SDS011;55472;50.060;21.960;2023-04-03T01:07:26;4.78;;;1.90;;
68484;SDS011;55472;50.060;21.960;2023-04-03T01:09:56;5.85;;;2.03;;
68484;SDS011;55472;50.060;21.960;2023-04-03T01:12:27;4.10;;;1.65;;
68484;SDS011;55472;50.060;21.960;2023-04-03T01:14:59;6.00;;;1.97;;
68484;SDS011;55472;50.060;21.960;2023-04-03T01:17:49;4.60;;;2.00;;
68484;SDS011;55472;50.060;21.960;2023-04-03T01:25:51;5.00;;;1.60;;
68484;SDS011;55472;50.060;21.960;2023-04-03T01:31:00;3.47;;;1.30;;
68484;SDS011;55472;50.060;21.960;2023-04-03T01:33:40;4.75;;;1.70;;
68484;SDS011;55472;50.060;21.960;2023-04-03T01:36:08;3.42;;;1.20;;
68484;SDS011;55472;50.060;21.960;2023-04-03T01:38:40;4.57;;;1.40;;
68484;SDS011;55472;50.060;21.960;2023-04-03T01:41:06;3.70;;;1.23;;
68484;SDS011;55472;50.060;21.960;2023-04-03T01:43:32;3.55;;;1.33;;
68484;SDS011;55472;50.060;21.960;2023-04-03T01:45:59;3.25;;;1.20;;
68484;SDS011;55472;50.060;21.960;2023-04-03T01:48:25;3.60;;;1.23;;
68484;SDS011;55472;50.060;21.960;2023-04-03T01:50:51;3.25;;;1.10;;
68484;SDS011;55472;50.060;21.960;2023-04-03T01:53:17;3.33;;;1.20;;
68484;SDS011;55472;50.060;21.960;2023-04-03T01:55:44;3.25;;;1.20;;
68484;SDS011;55472;50.060;21.960;2023-04-03T01:58:10;3.72;;;1.38;;
68484;SDS011;55472;50.060;21.960;2023-04-03T02:00:36;3.60;;;1.30;;
68484;SDS011;55472;50.060;21.960;2023-04-03T02:03:02;3.55;;;1.17;;
68484;SDS011;55472;50.060;21.960;2023-04-03T02:05:29;3.60;;;1.40;;
68484;SDS011;55472;50.060;21.960;2023-04-03T02:07:55;4.40;;;1.33;;
68484;SDS011;55472;50.060;21.960;2023-04-03T02:10:21;3.50;;;1.38;;
68484;SDS011;55472;50.060;21.960;2023-04-03T02:12:47;3.33;;;1.17;;
68484;SDS011;55472;50.060;21.960;2023-04-03T02:15:14;3.70;;;1.35;;
68484;SDS011;55472;50.060;21.960;2023-04-03T02:17:40;5.30;;;1.20;;
68484;SDS011;55472;50.060;21.960;2023-04-03T02:20:07;4.35;;;1.02;;
68484;SDS011;55472;50.060;21.960;2023-04-03T02:22:33;3.78;;;0.98;;
68484;SDS011;55472;50.060;21.960;2023-04-03T02:25:00;3.25;;;1.10;;
68484;SDS011;55472;50.060;21.960;2023-04-03T02:27:27;4.13;;;1.10;;
68484;SDS011;55472;50.060;21.960;2023-04-03T02:29:53;3.23;;;1.27;;
68484;SDS011;55472;50.060;21.960;2023-04-03T02:32:19;3.03;;;1.13;;
68484;SDS011;55472;50.060;21.960;2023-04-03T02:34:46;4.53;;;1.45;;
68484;SDS011;55472;50.060;21.960;2023-04-03T02:37:12;3.45;;;1.10;;
68484;SDS011;55472;50.060;21.960;2023-04-03T02:39:38;3.78;;;1.23;;
68484;SDS011;55472;50.060;21.960;2023-04-03T02:42:04;3.13;;;1.10;;
68484;SDS011;55472;50.060;21.960;2023-04-03T02:44:31;3.20;;;1.00;;
68484;SDS011;55472;50.060;21.960;2023-04-03T02:46:57;3.80;;;1.30;;
68484;SDS011;55472;50.060;21.960;2023-04-03T02:49:23;4.13;;;1.48;;
68484;SDS011;55472;50.060;21.960;2023-04-03T02:51:49;3.45;;;1.20;;
68484;SDS011;55472;50.060;21.960;2023-04-03T02:54:16;3.70;;;1.10;;
68484;SDS011;55472;50.060;21.960;2023-04-03T02:56:42;3.53;;;1.15;;
68484;SDS011;55472;50.060;21.960;2023-04-03T02:59:09;3.92;;;1.10;;
68484;SDS011;55472;50.060;21.960;2023-04-03T03:01:35;2.90;;;1.10;;
68484;SDS011;55472;50.060;21.960;2023-04-03T03:04:01;4.78;;;1.40;;
68484;SDS011;55472;50.060;21.960;2023-04-03T03:06:28;4.20;;;1.20;;
68484;SDS011;55472;50.060;21.960;2023-04-03T03:08:54;4.22;;;1.23;;
68484;SDS011;55472;50.060;21.960;2023-04-03T03:11:20;3.75;;;1.40;;
68484;SDS011;55472;50.060;21.960;2023-04-03T03:13:47;3.65;;;1.30;;
68484;SDS011;55472;50.060;21.960;2023-04-03T03:16:13;3.80;;;1.23;;
68484;SDS011;55472;50.060;21.960;2023-04-03T03:18:40;3.40;;;1.23;;
68484;SDS011;55472;50.060;21.960;2023-04-03T03:21:06;3.42;;;1.27;;
68484;SDS011;55472;50.060;21.960;2023-04-03T03:23:32;4.18;;;1.50;;
68484;SDS011;55472;50.060;21.960;2023-04-03T03:26:00;4.07;;;1.70;;
68484;SDS011;55472;50.060;21.960;2023-04-03T03:28:33;4.20;;;1.45;;
68484;SDS011;55472;50.060;21.960;2023-04-03T03:31:01;3.83;;;1.37;;
68484;SDS011;55472;50.060;21.960;2023-04-03T03:33:28;4.22;;;1.42;;
68484;SDS011;55472;50.060;21.960;2023-04-03T03:35:55;7.57;;;3.22;;
68484;SDS011;55472;50.060;21.960;2023-04-03T03:38:22;3.92;;;1.55;;
68484;SDS011;55472;50.060;21.960;2023-04-03T03:40:48;4.00;;;1.50;;
68484;SDS011;55472;50.060;21.960;2023-04-03T03:43:16;4.17;;;1.27;;
68484;SDS011;55472;50.060;21.960;2023-04-03T03:45:43;3.63;;;1.40;;
68484;SDS011;55472;50.060;21.960;2023-04-03T03:48:11;4.47;;;1.42;;
68484;SDS011;55472;50.060;21.960;2023-04-03T03:50:37;4.22;;;1.50;;
68484;SDS011;55472;50.060;21.960;2023-04-03T03:53:04;4.32;;;1.33;;
68484;SDS011;55472;50.060;21.960;2023-04-03T03:55:30;3.70;;;1.40;;
68484;SDS011;55472;50.060;21.960;2023-04-03T03:57:56;4.75;;;1.65;;
68484;SDS011;55472;50.060;21.960;2023-04-03T04:00:22;4.00;;;1.20;;
68484;SDS011;55472;50.060;21.960;2023-04-03T04:02:49;4.03;;;1.40;;
68484;SDS011;55472;50.060;21.960;2023-04-03T04:05:15;3.85;;;1.38;;
68484;SDS011;55472;50.060;21.960;2023-04-03T04:07:41;5.27;;;1.70;;
68484;SDS011;55472;50.060;21.960;2023-04-03T04:10:07;3.85;;;1.38;;
68484;SDS011;55472;50.060;21.960;2023-04-03T04:12:34;4.38;;;1.67;;
68484;SDS011;55472;50.060;21.960;2023-04-03T04:15:02;5.43;;;1.75;;
68484;SDS011;55472;50.060;21.960;2023-04-03T04:17:29;4.72;;;1.65;;
68484;SDS011;55472;50.060;21.960;2023-04-03T04:19:55;5.03;;;1.53;;
68484;SDS011;55472;50.060;21.960;2023-04-03T04:22:21;4.20;;;1.52;;
68484;SDS011;55472;50.060;21.960;2023-04-03T04:24:47;4.70;;;1.88;;
68484;SDS011;55472;50.060;21.960;2023-04-03T04:27:14;4.20;;;1.63;;
68484;SDS011;55472;50.060;21.960;2023-04-03T04:29:41;4.75;;;1.55;;
68484;SDS011;55472;50.060;21.960;2023-04-03T04:32:07;4.83;;;1.90;;
68484;SDS011;55472;50.060;21.960;2023-04-03T04:34:34;4.70;;;1.40;;
68484;SDS011;55472;50.060;21.960;2023-04-03T04:37:00;4.85;;;1.60;;
68484;SDS011;55472;50.060;21.960;2023-04-03T04:39:26;4.88;;;1.50;;
68484;SDS011;55472;50.060;21.960;2023-04-03T04:41:52;5.10;;;1.35;;
68484;SDS011;55472;50.060;21.960;2023-04-03T04:44:18;4.23;;;1.57;;
68484;SDS011;55472;50.060;21.960;2023-04-03T04:46:45;5.95;;;1.83;;
68484;SDS011;55472;50.060;21.960;2023-04-03T04:49:12;6.15;;;2.22;;
68484;SDS011;55472;50.060;21.960;2023-04-03T04:51:38;4.00;;;1.50;;
68484;SDS011;55472;50.060;21.960;2023-04-03T04:54:04;4.47;;;1.30;;
68484;SDS011;55472;50.060;21.960;2023-04-03T04:56:31;3.97;;;1.20;;
68484;SDS011;55472;50.060;21.960;2023-04-03T04:58:57;3.85;;;1.17;;
68484;SDS011;55472;50.060;21.960;2023-04-03T05:01:23;3.78;;;1.00;;
68484;SDS011;55472;50.060;21.960;2023-04-03T05:03:49;3.80;;;1.33;;
68484;SDS011;55472;50.060;21.960;2023-04-03T05:06:16;4.97;;;1.50;;
68484;SDS011;55472;50.060;21.960;2023-04-03T05:08:42;3.37;;;1.30;;
68484;SDS011;55472;50.060;21.960;2023-04-03T05:11:08;3.00;;;1.00;;
68484;SDS011;55472;50.060;21.960;2023-04-03T05:13:34;4.80;;;1.40;;
68484;SDS011;55472;50.060;21.960;2023-04-03T05:16:01;5.28;;;1.45;;
68484;SDS011;55472;50.060;21.960;2023-04-03T05:18:27;3.83;;;1.40;;
68484;SDS011;55472;50.060;21.960;2023-04-03T05:20:53;3.53;;;1.23;;
68484;SDS011;55472;50.060;21.960;2023-04-03T05:23:19;4.60;;;1.50;;
68484;SDS011;55472;50.060;21.960;2023-04-03T05:25:46;4.00;;;1.23;;
68484;SDS011;55472;50.060;21.960;2023-04-03T05:28:13;4.18;;;1.40;;
68484;SDS011;55472;50.060;21.960;2023-04-03T05:30:40;3.30;;;1.17;;
68484;SDS011;55472;50.060;21.960;2023-04-03T05:33:06;4.00;;;1.30;;
68484;SDS011;55472;50.060;21.960;2023-04-03T05:35:33;3.28;;;1.35;;
68484;SDS011;55472;50.060;21.960;2023-04-03T05:38:05;3.65;;;1.10;;
68484;SDS011;55472;50.060;21.960;2023-04-03T05:40:32;4.40;;;1.35;;
68484;SDS011;55472;50.060;21.960;2023-04-03T05:42:59;6.80;;;1.55;;
68484;SDS011;55472;50.060;21.960;2023-04-03T05:45:26;4.63;;;1.40;;
68484;SDS011;55472;50.060;21.960;2023-04-03T05:47:52;3.78;;;1.20;;
68484;SDS011;55472;50.060;21.960;2023-04-03T05:50:20;4.30;;;1.48;;
68484;SDS011;55472;50.060;21.960;2023-04-03T05:52:47;4.03;;;1.10;;
68484;SDS011;55472;50.060;21.960;2023-04-03T05:55:15;4.97;;;0.95;;
68484;SDS011;55472;50.060;21.960;2023-04-03T05:57:42;3.53;;;1.10;;
68484;SDS011;55472;50.060;21.960;2023-04-03T06:00:10;4.50;;;1.30;;
68484;SDS011;55472;50.060;21.960;2023-04-03T06:02:41;4.63;;;1.13;;
68484;SDS011;55472;50.060;21.960;2023-04-03T06:05:08;3.95;;;1.10;;
68484;SDS011;55472;50.060;21.960;2023-04-03T06:07:36;3.78;;;1.20;;
68484;SDS011;55472;50.060;21.960;2023-04-03T06:10:03;3.07;;;1.10;;
68484;SDS011;55472;50.060;21.960;2023-04-03T06:12:30;4.20;;;1.10;;
68484;SDS011;55472;50.060;21.960;2023-04-03T06:14:57;3.60;;;0.90;;
68484;SDS011;55472;50.060;21.960;2023-04-03T06:17:23;5.47;;;1.30;;
68484;SDS011;55472;50.060;21.960;2023-04-03T06:19:49;3.58;;;1.17;;
68484;SDS011;55472;50.060;21.960;2023-04-03T06:22:15;5.23;;;1.63;;
68484;SDS011;55472;50.060;21.960;2023-04-03T06:24:42;3.90;;;1.05;;
68484;SDS011;55472;50.060;21.960;2023-04-03T06:27:09;3.08;;;0.93;;
68484;SDS011;55472;50.060;21.960;2023-04-03T06:29:36;3.30;;;1.20;;
68484;SDS011;55472;50.060;21.960;2023-04-03T06:32:02;4.25;;;1.33;;
68484;SDS011;55472;50.060;21.960;2023-04-03T06:34:29;3.60;;;1.20;;
68484;SDS011;55472;50.060;21.960;2023-04-03T06:36:56;4.10;;;1.40;;
68484;SDS011;55472;50.060;21.960;2023-04-03T06:39:23;3.50;;;1.42;;
68484;SDS011;55472;50.060;21.960;2023-04-03T06:41:49;4.18;;;1.50;;
68484;SDS011;55472;50.060;21.960;2023-04-03T06:44:16;4.22;;;1.55;;
68484;SDS011;55472;50.060;21.960;2023-04-03T06:46:43;3.83;;;1.60;;
68484;SDS011;55472;50.060;21.960;2023-04-03T06:49:12;5.18;;;1.60;;
68484;SDS011;55472;50.060;21.960;2023-04-03T06:51:38;4.80;;;1.58;;
68484;SDS011;55472;50.060;21.960;2023-04-03T06:54:05;3.65;;;1.40;;
68484;SDS011;55472;50.060;21.960;2023-04-03T06:56:33;4.22;;;1.58;;
68484;SDS011;55472;50.060;21.960;2023-04-03T06:59:00;4.70;;;1.40;;
68484;SDS011;55472;50.060;21.960;2023-04-03T07:01:29;4.65;;;1.60;;
68484;SDS011;55472;50.060;21.960;2023-04-03T07:03:55;6.32;;;1.60;;
68484;SDS011;55472;50.060;21.960;2023-04-03T07:06:22;4.80;;;1.50;;
68484;SDS011;55472;50.060;21.960;2023-04-03T07:08:49;5.65;;;2.00;;
68484;SDS011;55472;50.060;21.960;2023-04-03T07:11:16;4.00;;;1.50;;
68484;SDS011;55472;50.060;21.960;2023-04-03T07:13:42;3.53;;;1.38;;
68484;SDS011;55472;50.060;21.960;2023-04-03T07:16:09;4.22;;;1.70;;
68484;SDS011;55472;50.060;21.960;2023-04-03T07:18:35;4.90;;;1.42;;
68484;SDS011;55472;50.060;21.960;2023-04-03T07:21:02;4.03;;;1.48;;
68484;SDS011;55472;50.060;21.960;2023-04-03T07:23:29;4.70;;;1.33;;
68484;SDS011;55472;50.060;21.960;2023-04-03T07:25:56;4.25;;;1.70;;
68484;SDS011;55472;50.060;21.960;2023-04-03T07:28:22;4.68;;;1.60;;
68484;SDS011;55472;50.060;21.960;2023-04-03T07:30:50;5.95;;;1.73;;
68484;SDS011;55472;50.060;21.960;2023-04-03T07:33:21;5.10;;;1.67;;
68484;SDS011;55472;50.060;21.960;2023-04-03T07:35:48;3.63;;;1.50;;
68484;SDS011;55472;50.060;21.960;2023-04-03T07:38:14;5.70;;;1.92;;
68484;SDS011;55472;50.060;21.960;2023-04-03T07:40:45;5.32;;;1.70;;
68484;SDS011;55472;50.060;21.960;2023-04-03T07:43:13;4.40;;;1.77;;
68484;SDS011;55472;50.060;21.960;2023-04-03T07:45:42;5.05;;;2.05;;
68484;SDS011;55472;50.060;21.960;2023-04-03T07:48:20;5.23;;;1.73;;
68484;SDS011;55472;50.060;21.960;2023-04-03T07:50:48;5.35;;;1.80;;
68484;SDS011;55472;50.060;21.960;2023-04-03T07:53:14;4.70;;;1.52;;
68484;SDS011;55472;50.060;21.960;2023-04-03T07:55:41;4.93;;;1.65;;
68484;SDS011;55472;50.060;21.960;2023-04-03T07:58:09;4.60;;;1.45;;
68484;SDS011;55472;50.060;21.960;2023-04-03T08:00:36;5.77;;;1.60;;
68484;SDS011;55472;50.060;21.960;2023-04-03T08:03:16;4.10;;;1.55;;
68484;SDS011;55472;50.060;21.960;2023-04-03T08:05:43;5.38;;;1.70;;
68484;SDS011;55472;50.060;21.960;2023-04-03T08:08:21;3.60;;;1.25;;
68484;SDS011;55472;50.060;21.960;2023-04-03T08:10:49;6.13;;;2.40;;
68484;SDS011;55472;50.060;21.960;2023-04-03T08:13:20;4.20;;;1.47;;
68484;SDS011;55472;50.060;21.960;2023-04-03T08:16:16;5.82;;;1.80;;
68484;SDS011;55472;50.060;21.960;2023-04-03T08:18:55;7.40;;;1.60;;
68484;SDS011;55472;50.060;21.960;2023-04-03T08:21:22;4.25;;;1.67;;
68484;SDS011;55472;50.060;21.960;2023-04-03T08:23:49;3.78;;;1.50;;
68484;SDS011;55472;50.060;21.960;2023-04-03T08:26:17;6.10;;;2.07;;
68484;SDS011;55472;50.060;21.960;2023-04-03T08:28:47;4.85;;;1.60;;
68484;SDS011;55472;50.060;21.960;2023-04-03T08:31:28;4.60;;;1.42;;
68484;SDS011;55472;50.060;21.960;2023-04-03T08:33:57;3.92;;;1.52;;
68484;SDS011;55472;50.060;21.960;2023-04-03T08:36:27;4.03;;;1.55;;
68484;SDS011;55472;50.060;21.960;2023-04-03T08:40:14;4.67;;;1.50;;
68484;SDS011;55472;50.060;21.960;2023-04-03T08:54:42;4.22;;;1.77;;
68484;SDS011;55472;50.060;21.960;2023-04-03T08:58:19;5.90;;;1.80;;
68484;SDS011;55472;50.060;21.960;2023-04-03T09:01:10;5.68;;;1.88;;
68484;SDS011;55472;50.060;21.960;2023-04-03T09:04:01;7.50;;;2.53;;
68484;SDS011;55472;50.060;21.960;2023-04-03T09:06:49;6.28;;;2.28;;
68484;SDS011;55472;50.060;21.960;2023-04-03T09:09:41;7.25;;;2.13;;
68484;SDS011;55472;50.060;21.960;2023-04-03T09:21:48;6.82;;;1.90;;
68484;SDS011;55472;50.060;21.960;2023-04-03T09:24:15;5.95;;;2.20;;
68484;SDS011;55472;50.060;21.960;2023-04-03T09:29:21;8.98;;;2.03;;
68484;SDS011;55472;50.060;21.960;2023-04-03T09:31:50;5.35;;;2.00;;
68484;SDS011;55472;50.060;21.960;2023-04-03T09:34:24;7.03;;;2.20;;
68484;SDS011;55472;50.060;21.960;2023-04-03T09:37:49;6.55;;;2.20;;
68484;SDS011;55472;50.060;21.960;2023-04-03T09:42:51;7.20;;;2.60;;
68484;SDS011;55472;50.060;21.960;2023-04-03T09:45:24;4.93;;;1.63;;
68484;SDS011;55472;50.060;21.960;2023-04-03T09:56:29;9.38;;;3.65;;
68484;SDS011;55472;50.060;21.960;2023-04-03T10:06:51;6.87;;;2.20;;
68484;SDS011;55472;50.060;21.960;2023-04-03T10:09:24;8.85;;;2.95;;
68484;SDS011;55472;50.060;21.960;2023-04-03T10:14:30;5.05;;;1.80;;
68484;SDS011;55472;50.060;21.960;2023-04-03T10:17:18;6.35;;;2.15;;
68484;SDS011;55472;50.060;21.960;2023-04-03T10:20:18;6.53;;;2.03;;
68484;SDS011;55472;50.060;21.960;2023-04-03T10:26:03;5.75;;;2.03;;
68484;SDS011;55472;50.060;21.960;2023-04-03T10:31:53;4.97;;;1.80;;
68484;SDS011;55472;50.060;21.960;2023-04-03T10:42:56;6.97;;;1.50;;
68484;SDS011;55472;50.060;21.960;2023-04-03T10:54:10;4.80;;;1.33;;
68484;SDS011;55472;50.060;21.960;2023-04-03T10:56:42;4.60;;;1.45;;
68484;SDS011;55472;50.060;21.960;2023-04-03T11:02:20;4.83;;;1.30;;
68484;SDS011;55472;50.060;21.960;2023-04-03T11:04:56;5.72;;;1.45;;
68484;SDS011;55472;50.060;21.960;2023-04-03T11:07:29;5.50;;;1.50;;
68484;SDS011;55472;50.060;21.960;2023-04-03T11:10:05;5.93;;;1.40;;
68484;SDS011;55472;50.060;21.960;2023-04-03T11:12:50;4.40;;;1.35;;
68484;SDS011;55472;50.060;21.960;2023-04-03T11:15:23;6.53;;;1.60;;
68484;SDS011;55472;50.060;21.960;2023-04-03T11:17:51;4.97;;;1.27;;
68484;SDS011;55472;50.060;21.960;2023-04-03T11:20:36;5.20;;;2.00;;
68484;SDS011;55472;50.060;21.960;2023-04-03T11:23:12;4.25;;;1.27;;
68484;SDS011;55472;50.060;21.960;2023-04-03T11:26:00;5.55;;;1.42;;
68484;SDS011;55472;50.060;21.960;2023-04-03T11:28:41;4.50;;;1.43;;
68484;SDS011;55472;50.060;21.960;2023-04-03T11:36:33;4.40;;;1.70;;
68484;SDS011;55472;50.060;21.960;2023-04-03T11:39:49;6.10;;;1.60;;
68484;SDS011;55472;50.060;21.960;2023-04-03T11:44:41;5.78;;;1.35;;
68484;SDS011;55472;50.060;21.960;2023-04-03T11:47:11;5.20;;;1.40;;
68484;SDS011;55472;50.060;21.960;2023-04-03T11:58:24;7.82;;;1.80;;
68484;SDS011;55472;50.060;21.960;2023-04-03T12:16:28;5.93;;;1.85;;
68484;SDS011;55472;50.060;21.960;2023-04-03T12:19:24;6.38;;;2.03;;
68484;SDS011;55472;50.060;21.960;2023-04-03T12:24:26;5.18;;;1.65;;
68484;SDS011;55472;50.060;21.960;2023-04-03T12:29:41;6.65;;;2.00;;
68484;SDS011;55472;50.060;21.960;2023-04-03T12:35:28;5.73;;;1.73;;
68484;SDS011;55472;50.060;21.960;2023-04-03T12:43:48;4.50;;;1.55;;
68484;SDS011;55472;50.060;21.960;2023-04-03T12:46:45;5.35;;;1.75;;
68484;SDS011;55472;50.060;21.960;2023-04-03T12:51:58;6.30;;;1.73;;
68484;SDS011;55472;50.060;21.960;2023-04-03T12:54:38;4.75;;;1.58;;
68484;SDS011;55472;50.060;21.960;2023-04-03T12:57:09;7.00;;;1.60;;
68484;SDS011;55472;50.060;21.960;2023-04-03T12:59:42;6.80;;;2.00;;
68484;SDS011;55472;50.060;21.960;2023-04-03T13:04:58;5.40;;;1.67;;
68484;SDS011;55472;50.060;21.960;2023-04-03T13:07:35;5.15;;;1.42;;
68484;SDS011;55472;50.060;21.960;2023-04-03T13:12:45;5.47;;;2.40;;
68484;SDS011;55472;50.060;21.960;2023-04-03T13:15:49;4.63;;;1.50;;
68484;SDS011;55472;50.060;21.960;2023-04-03T13:18:22;5.47;;;1.80;;
68484;SDS011;55472;50.060;21.960;2023-04-03T13:20:51;4.28;;;1.10;;
68484;SDS011;55472;50.060;21.960;2023-04-03T13:23:18;5.47;;;1.70;;
68484;SDS011;55472;50.060;21.960;2023-04-03T13:25:46;4.18;;;1.08;;
68484;SDS011;55472;50.060;21.960;2023-04-03T13:28:15;4.27;;;1.10;;
68484;SDS011;55472;50.060;21.960;2023-04-03T13:36:43;4.53;;;1.20;;
68484;SDS011;55472;50.060;21.960;2023-04-03T13:41:49;4.90;;;1.70;;
68484;SDS011;55472;50.060;21.960;2023-04-03T13:46:54;5.97;;;1.45;;
68484;SDS011;55472;50.060;21.960;2023-04-03T13:52:17;5.32;;;1.50;;
68484;SDS011;55472;50.060;21.960;2023-04-03T13:54:56;4.43;;;1.27;;
68484;SDS011;55472;50.060;21.960;2023-04-03T13:57:25;5.30;;;1.60;;
68484;SDS011;55472;50.060;21.960;2023-04-03T13:59:53;3.75;;;1.33;;
68484;SDS011;55472;50.060;21.960;2023-04-03T14:04:57;6.47;;;1.70;;
68484;SDS011;55472;50.060;21.960;2023-04-03T14:07:29;4.43;;;1.50;;
68484;SDS011;55472;50.060;21.960;2023-04-03T14:09:59;7.00;;;1.90;;
68484;SDS011;55472;50.060;21.960;2023-04-03T14:12:34;7.13;;;1.95;;
68484;SDS011;55472;50.060;21.960;2023-04-03T14:15:05;13.30;;;4.97;;
68484;SDS011;55472;50.060;21.960;2023-04-03T14:17:43;13.93;;;3.97;;
68484;SDS011;55472;50.060;21.960;2023-04-03T14:20:14;20.27;;;6.30;;
68484;SDS011;55472;50.060;21.960;2023-04-03T14:22:47;23.60;;;8.57;;
68484;SDS011;55472;50.060;21.960;2023-04-03T14:25:14;14.40;;;5.10;;
68484;SDS011;55472;50.060;21.960;2023-04-03T14:27:42;15.45;;;6.25;;
68484;SDS011;55472;50.060;21.960;2023-04-03T14:33:00;10.47;;;4.17;;
68484;SDS011;55472;50.060;21.960;2023-04-03T14:35:27;10.90;;;3.55;;
68484;SDS011;55472;50.060;21.960;2023-04-03T14:37:55;7.07;;;2.80;;
68484;SDS011;55472;50.060;21.960;2023-04-03T14:40:25;7.88;;;2.50;;
68484;SDS011;55472;50.060;21.960;2023-04-03T14:42:53;8.30;;;2.45;;
68484;SDS011;55472;50.060;21.960;2023-04-03T14:45:21;8.60;;;2.33;;
68484;SDS011;55472;50.060;21.960;2023-04-03T14:47:49;5.68;;;2.08;;
68484;SDS011;55472;50.060;21.960;2023-04-03T14:50:23;7.78;;;2.20;;
68484;SDS011;55472;50.060;21.960;2023-04-03T14:52:53;5.47;;;2.10;;
68484;SDS011;55472;50.060;21.960;2023-04-03T14:55:24;6.47;;;2.10;;
68484;SDS011;55472;50.060;21.960;2023-04-03T14:57:51;5.33;;;1.63;;
68484;SDS011;55472;50.060;21.960;2023-04-03T15:00:20;4.55;;;1.58;;
68484;SDS011;55472;50.060;21.960;2023-04-03T15:02:47;5.43;;;1.40;;
68484;SDS011;55472;50.060;21.960;2023-04-03T15:05:14;7.07;;;2.22;;
68484;SDS011;55472;50.060;21.960;2023-04-03T15:07:43;7.75;;;2.45;;
68484;SDS011;55472;50.060;21.960;2023-04-03T15:10:17;6.43;;;2.37;;
68484;SDS011;55472;50.060;21.960;2023-04-03T15:12:55;8.15;;;2.40;;
68484;SDS011;55472;50.060;21.960;2023-04-03T15:15:22;8.82;;;2.75;;
68484;SDS011;55472;50.060;21.960;2023-04-03T15:17:55;8.65;;;2.97;;
68484;SDS011;55472;50.060;21.960;2023-04-03T15:20:24;7.03;;;2.42;;
68484;SDS011;55472;50.060;21.960;2023-04-03T15:22:53;6.47;;;2.23;;
68484;SDS011;55472;50.060;21.960;2023-04-03T15:25:21;6.07;;;1.80;;
68484;SDS011;55472;50.060;21.960;2023-04-03T15:27:48;6.15;;;1.98;;
68484;SDS011;55472;50.060;21.960;2023-04-03T15:30:15;6.50;;;2.00;;
68484;SDS011;55472;50.060;21.960;2023-04-03T15:32:44;6.40;;;1.70;;
68484;SDS011;55472;50.060;21.960;2023-04-03T15:35:11;5.63;;;1.60;;
68484;SDS011;55472;50.060;21.960;2023-04-03T15:37:37;4.40;;;1.55;;
68484;SDS011;55472;50.060;21.960;2023-04-03T15:40:04;4.47;;;1.50;;
68484;SDS011;55472;50.060;21.960;2023-04-03T15:42:32;4.68;;;1.50;;
68484;SDS011;55472;50.060;21.960;2023-04-03T15:44:59;5.30;;;1.42;;
68484;SDS011;55472;50.060;21.960;2023-04-03T15:47:25;5.80;;;2.10;;
68484;SDS011;55472;50.060;21.960;2023-04-03T15:49:53;6.00;;;2.45;;
68484;SDS011;55472;50.060;21.960;2023-04-03T15:52:20;11.25;;;3.47;;
68484;SDS011;55472;50.060;21.960;2023-04-03T15:54:46;11.50;;;4.32;;
68484;SDS011;55472;50.060;21.960;2023-04-03T15:57:12;9.15;;;2.78;;
68484;SDS011;55472;50.060;21.960;2023-04-03T15:59:39;8.60;;;3.17;;
68484;SDS011;55472;50.060;21.960;2023-04-03T16:02:06;11.32;;;4.60;;
68484;SDS011;55472;50.060;21.960;2023-04-03T16:04:36;8.75;;;3.00;;
68484;SDS011;55472;50.060;21.960;2023-04-03T16:07:02;7.90;;;2.90;;
68484;SDS011;55472;50.060;21.960;2023-04-03T16:09:30;14.88;;;4.43;;
68484;SDS011;55472;50.060;21.960;2023-04-03T16:11:58;17.07;;;6.40;;
68484;SDS011;55472;50.060;21.960;2023-04-03T16:14:24;10.63;;;3.72;;
68484;SDS011;55472;50.060;21.960;2023-04-03T16:16:50;7.95;;;2.42;;
68484;SDS011;55472;50.060;21.960;2023-04-03T16:19:17;7.82;;;2.63;;
68484;SDS011;55472;50.060;21.960;2023-04-03T16:21:43;8.25;;;3.22;;
68484;SDS011;55472;50.060;21.960;2023-04-03T16:24:09;12.67;;;3.30;;
68484;SDS011;55472;50.060;21.960;2023-04-03T16:26:35;12.85;;;3.88;;
68484;SDS011;55472;50.060;21.960;2023-04-03T16:29:02;6.97;;;2.28;;
68484;SDS011;55472;50.060;21.960;2023-04-03T16:31:28;8.45;;;2.60;;
68484;SDS011;55472;50.060;21.960;2023-04-03T16:33:54;7.07;;;2.28;;
68484;SDS011;55472;50.060;21.960;2023-04-03T16:36:21;8.30;;;2.53;;
68484;SDS011;55472;50.060;21.960;2023-04-03T16:38:50;7.90;;;2.65;;
68484;SDS011;55472;50.060;21.960;2023-04-03T16:41:16;7.40;;;2.53;;
68484;SDS011;55472;50.060;21.960;2023-04-03T16:43:42;7.60;;;2.42;;
68484;SDS011;55472;50.060;21.960;2023-04-03T16:46:08;8.75;;;2.40;;
68484;SDS011;55472;50.060;21.960;2023-04-03T16:48:35;9.43;;;2.87;;
68484;SDS011;55472;50.060;21.960;2023-04-03T16:51:01;9.43;;;2.83;;
68484;SDS011;55472;50.060;21.960;2023-04-03T16:53:28;6.28;;;2.13;;
68484;SDS011;55472;50.060;21.960;2023-04-03T16:55:56;5.97;;;2.22;;
68484;SDS011;55472;50.060;21.960;2023-04-03T16:58:24;8.00;;;2.15;;
68484;SDS011;55472;50.060;21.960;2023-04-03T17:00:50;7.20;;;2.47;;
68484;SDS011;55472;50.060;21.960;2023-04-03T17:03:16;6.68;;;2.30;;
68484;SDS011;55472;50.060;21.960;2023-04-03T17:05:46;7.97;;;2.42;;
68484;SDS011;55472;50.060;21.960;2023-04-03T17:08:13;6.95;;;2.10;;
68484;SDS011;55472;50.060;21.960;2023-04-03T17:10:41;9.45;;;2.60;;
68484;SDS011;55472;50.060;21.960;2023-04-03T17:13:08;9.13;;;2.10;;
68484;SDS011;55472;50.060;21.960;2023-04-03T17:15:34;10.95;;;2.42;;
68484;SDS011;55472;50.060;21.960;2023-04-03T17:18:01;9.07;;;2.28;;
68484;SDS011;55472;50.060;21.960;2023-04-03T17:20:27;7.35;;;1.88;;
68484;SDS011;55472;50.060;21.960;2023-04-03T17:22:55;8.77;;;2.63;;
68484;SDS011;55472;50.060;21.960;2023-04-03T17:25:21;7.63;;;1.80;;